createdAt,value
2023-05-18T07:59:25.092Z,70.53
2023-05-18T08:02:16.731Z,63.40
2023-05-18T08:05:08.094Z,48.80
2023-05-18T08:07:58.545Z,38.00
2023-05-18T08:10:48.921Z,39.13
2023-05-18T08:13:39.417Z,29.15
2023-05-18T08:16:29.493Z,23.35
2023-05-18T08:19:20.086Z,20.23
2023-05-18T08:22:11.258Z,22.35
2023-05-18T08:25:01.681Z,16.60
2023-05-18T08:27:51.698Z,13.90
2023-05-18T08:30:42.194Z,23.77
2023-05-18T08:33:32.677Z,18.40
2023-05-18T08:36:22.901Z,19.50
2023-05-18T08:39:13.310Z,16.15
2023-05-18T08:42:19.053Z,12.05
2023-05-18T08:45:20.440Z,14.68
2023-05-18T08:48:13.061Z,17.83
2023-05-18T08:51:05.555Z,9.20
2023-05-18T08:53:55.704Z,13.93
2023-05-18T08:56:46.824Z,11.73
2023-05-18T08:59:41.395Z,12.88
2023-05-18T09:02:33.551Z,10.25
2023-05-18T09:05:24.004Z,21.52
2023-05-18T09:08:14.610Z,19.33
2023-05-18T09:11:06.065Z,13.05
2023-05-18T09:13:56.573Z,14.30
2023-05-18T09:16:46.834Z,9.07
2023-05-18T09:19:37.288Z,13.88
2023-05-18T09:22:27.687Z,7.63
2023-05-18T09:25:18.526Z,10.48
2023-05-18T09:28:08.994Z,11.45
2023-05-18T09:30:59.045Z,12.23
2023-05-18T09:33:50.361Z,10.13
2023-05-18T09:36:42.505Z,7.85
2023-05-18T09:39:32.943Z,6.60
2023-05-18T09:42:37.039Z,5.30
2023-05-18T09:45:28.562Z,6.55
2023-05-18T09:48:19.248Z,6.68
2023-05-18T09:51:16.135Z,6.65
2023-05-18T09:54:10.210Z,7.80
2023-05-18T09:57:10.366Z,9.98
2023-05-18T10:00:10.331Z,5.97
2023-05-18T10:03:01.143Z,5.97
2023-05-18T10:05:51.875Z,9.98
2023-05-18T10:08:42.146Z,6.80
2023-05-18T10:11:33.429Z,5.60
2023-05-18T10:14:25.487Z,6.10
2023-05-18T10:17:17.266Z,7.55
2023-05-18T10:20:09.857Z,4.50
2023-05-18T10:23:03.507Z,5.95
2023-05-18T10:28:47.418Z,4.93
2023-05-18T10:31:39.044Z,3.30
2023-05-18T10:34:33.220Z,4.65
2023-05-18T10:40:15.429Z,23.30
2023-05-18T10:43:06.525Z,28.95
2023-05-18T10:46:01.214Z,24.50
2023-05-18T10:48:53.726Z,24.77
2023-05-18T10:51:45.318Z,20.02
2023-05-18T10:54:36.921Z,13.80
2023-05-18T10:57:36.912Z,9.50
2023-05-18T11:00:27.257Z,11.35
2023-05-18T11:03:18.690Z,13.45
2023-05-18T11:06:13.004Z,7.38
2023-05-18T11:09:03.717Z,13.82
2023-05-18T11:11:56.781Z,9.50
2023-05-18T11:14:50.364Z,6.55
2023-05-18T11:17:40.563Z,8.17
2023-05-18T11:20:30.888Z,8.45
2023-05-18T11:23:23.851Z,6.18
2023-05-18T11:26:16.376Z,6.07
2023-05-18T11:29:17.525Z,9.98
2023-05-18T11:32:29.997Z,9.10
2023-05-18T11:35:24.396Z,6.63
2023-05-18T11:38:14.725Z,11.48
2023-05-18T11:41:05.142Z,5.55
2023-05-18T11:44:16.751Z,5.25
2023-05-18T11:47:11.663Z,3.58
2023-05-18T11:50:06.057Z,4.07
2023-05-18T11:52:57.129Z,5.10
2023-05-18T11:55:47.538Z,4.68
2023-05-18T11:58:38.087Z,8.43
2023-05-18T12:01:29.742Z,6.25
2023-05-18T12:04:20.169Z,2.58
2023-05-18T12:07:10.637Z,8.23
2023-05-18T12:10:03.446Z,4.30
2023-05-18T12:12:54.129Z,4.95
2023-05-18T12:15:45.601Z,3.67
2023-05-18T12:18:36.494Z,4.72
2023-05-18T12:21:26.643Z,3.95
2023-05-18T12:24:16.952Z,5.25
2023-05-18T12:27:09.823Z,4.88
2023-05-18T12:30:00.313Z,3.10
2023-05-18T12:32:55.928Z,1.95
2023-05-18T12:35:45.836Z,6.05
2023-05-18T12:38:36.142Z,3.20
2023-05-18T12:41:27.347Z,6.60
2023-05-18T12:44:17.737Z,4.13
2023-05-18T12:47:07.874Z,3.78
2023-05-18T12:50:02.319Z,5.32
2023-05-18T12:52:52.770Z,4.10
2023-05-18T12:55:43.170Z,3.95
2023-05-18T12:58:33.086Z,3.35
2023-05-18T13:01:24.995Z,3.10
2023-05-18T13:04:15.997Z,4.57
2023-05-18T13:07:06.464Z,6.78
2023-05-18T13:10:06.129Z,6.63
2023-05-18T13:13:03.572Z,4.07
2023-05-18T13:15:53.953Z,4.88
2023-05-18T13:18:46.758Z,2.97
2023-05-18T13:21:37.745Z,2.78
2023-05-18T13:24:27.782Z,3.72
2023-05-18T13:27:18.065Z,5.95
2023-05-18T13:30:09.062Z,2.47
2023-05-18T13:33:00.189Z,2.03
2023-05-18T13:35:50.663Z,3.83
2023-05-18T13:38:41.399Z,2.63
2023-05-18T13:41:31.828Z,3.50
2023-05-18T13:44:22.312Z,3.15
2023-05-18T13:47:12.820Z,3.10
2023-05-18T13:50:03.406Z,2.45
2023-05-18T13:52:53.968Z,2.17
2023-05-18T13:55:44.473Z,2.95
2023-05-18T13:58:36.029Z,1.67
2023-05-18T14:01:26.806Z,3.55
2023-05-18T14:04:17.032Z,4.60
2023-05-18T14:07:09.476Z,2.15
2023-05-18T14:09:59.898Z,4.10
2023-05-18T14:12:50.240Z,3.22
2023-05-18T14:15:40.800Z,2.05
2023-05-18T14:18:31.241Z,3.10
2023-05-18T14:21:21.780Z,2.75
2023-05-18T14:24:12.327Z,2.53
2023-05-18T14:27:02.711Z,3.35
2023-05-18T14:29:53.369Z,3.35
2023-05-18T14:32:43.678Z,3.08
2023-05-18T14:35:34.134Z,3.47
2023-05-18T14:38:26.821Z,1.88
2023-05-18T14:41:16.961Z,2.22
2023-05-18T14:44:09.915Z,3.33
2023-05-18T14:47:00.006Z,2.58
2023-05-18T14:49:50.303Z,2.58
2023-05-18T14:52:41.257Z,2.25
2023-05-18T14:55:31.689Z,2.47
2023-05-18T14:58:22.231Z,4.97
2023-05-18T15:01:12.306Z,2.20
2023-05-18T15:04:02.778Z,2.13
2023-05-18T15:06:53.373Z,2.58
2023-05-18T15:09:43.570Z,2.58
